Time;durP1;ratioP1;P1;durP2;ratioP2;P2;SDS_P1;SDS_P2;PMS_P1;PMS_P2;Temp;Humidity;BMP_temperature;BMP_pressure;BME280_temperature;BME280_humidity;BME280_pressure;Samples;Min_cycle;Max_cycle;Signal;HPM_P1;HPM_P2
2023/07/02 00:00:38;;;;;;;;;40.67;36.33;;;;;;;;5017233;28;28304;-96
2023/07/02 00:03:03;;;;;;;;;30.00;30.00;;;;;;;;4998872;28;29675;-95
2023/07/02 00:05:31;;;;;;;;;45.25;35.75;;;;;;;;5014762;28;28336;-95
2023/07/02 00:07:56;;;;;;;;;41.00;35.00;;;;;;;;5017304;28;28247;-95
2023/07/02 00:10:21;;;;;;;;;37.67;33.00;;;;;;;;5016021;28;28486;-94
2023/07/02 00:12:47;;;;;;;;;35.75;33.25;;;;;;;;5025696;28;30801;-96
2023/07/02 00:15:12;;;;;;;;;46.00;38.50;;;;;;;;4998451;28;30032;-95
2023/07/02 00:17:40;;;;;;;;;49.00;38.00;;;;;;;;5017300;28;28396;-94
2023/07/02 00:20:06;;;;;;;;;40.50;33.75;;;;;;;;4999445;28;28321;-95
2023/07/02 00:22:36;;;;;;;;;47.50;39.25;;;;;;;;4998748;28;30080;-95
2023/07/02 00:25:01;;;;;;;;;34.25;33.00;;;;;;;;5015665;28;28320;-94
2023/07/02 00:27:26;;;;;;;;;41.00;33.25;;;;;;;;5016828;28;28521;-94
2023/07/02 00:29:51;;;;;;;;;40.00;36.25;;;;;;;;4998533;28;29356;-94
2023/07/02 00:32:17;;;;;;;;;39.33;34.33;;;;;;;;5015007;28;28543;-95
2023/07/02 00:34:42;;;;;;;;;38.25;36.25;;;;;;;;5014528;28;28384;-95
2023/07/02 00:37:07;;;;;;;;;39.75;33.50;;;;;;;;4997577;28;28518;-95
2023/07/02 00:39:32;;;;;;;;;48.25;39.50;;;;;;;;5015521;28;28518;-95
2023/07/02 00:42:02;;;;;;;;;35.75;34.75;;;;;;;;5016644;28;29218;-95
2023/07/02 00:44:27;;;;;;;;;28.00;28.00;;;;;;;;4997026;28;29888;-95
2023/07/02 00:46:53;;;;;;;;;37.00;33.75;;;;;;;;4997986;28;28542;-94
2023/07/02 00:49:18;;;;;;;;;29.00;26.67;;;;;;;;5014749;28;28351;-95
2023/07/02 00:51:43;;;;;;;;;46.50;36.75;;;;;;;;5014792;28;30804;-95
2023/07/02 00:54:08;;;;;;;;;35.75;32.50;;;;;;;;5016432;28;28518;-95
2023/07/02 00:56:34;;;;;;;;;40.75;36.75;;;;;;;;5017302;28;28423;-94
2023/07/02 00:59:00;;;;;;;;;40.50;36.00;;;;;;;;4996756;28;28685;-94
2023/07/02 01:01:28;;;;;;;;;46.75;38.25;;;;;;;;5016383;28;28597;-94
2023/07/02 01:03:55;;;;;;;;;37.67;30.00;;;;;;;;5015379;28;28727;-95
2023/07/02 01:06:27;;;;;;;;;38.25;33.25;;;;;;;;5014518;28;28249;-95
2023/07/02 01:08:57;;;;;;;;;38.75;33.25;;;;;;;;4995658;28;28523;-96
2023/07/02 01:11:25;;;;;;;;;40.75;36.50;;;;;;;;5016303;28;29651;-95
2023/07/02 01:13:52;;;;;;;;;36.75;34.25;;;;;;;;5016115;28;28616;-95
2023/07/02 01:16:18;;;;;;;;;25.25;23.50;;;;;;;;5016157;28;28533;-95
2023/07/02 01:18:43;;;;;;;;;43.50;35.50;;;;;;;;4998690;28;28297;-95
2023/07/02 01:21:08;;;;;;;;;54.75;44.75;;;;;;;;5015724;28;29526;-95
2023/07/02 01:23:34;;;;;;;;;54.75;43.75;;;;;;;;5016181;28;28656;-95
2023/07/02 01:25:59;;;;;;;;;51.75;40.25;;;;;;;;5013847;28;29163;-95
2023/07/02 01:28:25;;;;;;;;;58.50;46.50;;;;;;;;4997255;28;28240;-95
2023/07/02 01:30:51;;;;;;;;;36.25;35.50;;;;;;;;5013091;28;28464;-95
2023/07/02 01:33:16;;;;;;;;;47.00;37.50;;;;;;;;5014156;28;28494;-95
2023/07/02 01:35:41;;;;;;;;;44.75;38.25;;;;;;;;4995723;28;28254;-94
2023/07/02 01:38:06;;;;;;;;;46.75;42.25;;;;;;;;5014759;28;28846;-95
2023/07/02 01:40:31;;;;;;;;;40.25;34.00;;;;;;;;5014736;28;28662;-94
2023/07/02 01:42:57;;;;;;;;;41.25;37.50;;;;;;;;4997241;28;28490;-95
2023/07/02 01:45:22;;;;;;;;;31.25;28.75;;;;;;;;5015874;28;28577;-95
2023/07/02 01:47:47;;;;;;;;;34.33;32.33;;;;;;;;5015804;28;28466;-95
2023/07/02 01:50:13;;;;;;;;;48.00;39.00;;;;;;;;5011436;28;28465;-95
2023/07/02 01:52:38;;;;;;;;;33.00;30.33;;;;;;;;5015826;28;28551;-95
2023/07/02 01:55:03;;;;;;;;;35.33;32.67;;;;;;;;4997745;28;28602;-95
2023/07/02 01:57:30;;;;;;;;;35.33;34.00;;;;;;;;5017355;28;28392;-94
2023/07/02 01:59:55;;;;;;;;;34.50;33.00;;;;;;;;5013033;28;29003;-95
2023/07/02 02:02:20;;;;;;;;;31.33;31.00;;;;;;;;5015328;28;28545;-95
2023/07/02 02:04:46;;;;;;;;;39.67;32.33;;;;;;;;5015112;28;28502;-95
2023/07/02 02:07:11;;;;;;;;;38.50;34.75;;;;;;;;5014417;28;28442;-95
2023/07/02 02:09:36;;;;;;;;;63.00;52.25;;;;;;;;5014227;28;28418;-95
2023/07/02 02:12:02;;;;;;;;;42.50;37.00;;;;;;;;5015550;28;28482;-95
2023/07/02 02:14:27;;;;;;;;;39.50;36.00;;;;;;;;5015392;28;29642;-95
2023/07/02 02:16:52;;;;;;;;;47.00;38.25;;;;;;;;5013231;28;28382;-96
2023/07/02 02:19:17;;;;;;;;;41.00;34.67;;;;;;;;5013943;28;28446;-95
2023/07/02 02:21:43;;;;;;;;;23.00;22.33;;;;;;;;5014542;28;28222;-95
2023/07/02 02:24:08;;;;;;;;;44.50;38.25;;;;;;;;4996618;28;28269;-95
2023/07/02 02:26:34;;;;;;;;;40.50;37.75;;;;;;;;5014300;28;28554;-95
2023/07/02 02:28:59;;;;;;;;;51.00;41.75;;;;;;;;4996585;28;30706;-95
2023/07/02 02:31:24;;;;;;;;;42.75;36.50;;;;;;;;5012996;28;28446;-95
2023/07/02 02:33:50;;;;;;;;;39.25;36.25;;;;;;;;4995653;28;28977;-95
2023/07/02 02:36:17;;;;;;;;;40.50;37.00;;;;;;;;5014976;28;28465;-94
2023/07/02 02:38:42;;;;;;;;;38.25;35.50;;;;;;;;5014090;28;29415;-94
2023/07/02 02:41:08;;;;;;;;;34.00;31.00;;;;;;;;5014930;28;28525;-95
2023/07/02 02:43:33;;;;;;;;;38.00;34.25;;;;;;;;5015231;28;28444;-95
2023/07/02 02:45:58;;;;;;;;;35.00;32.67;;;;;;;;5014234;28;28485;-95
2023/07/02 02:48:24;;;;;;;;;37.50;35.50;;;;;;;;5013947;28;28506;-94
2023/07/02 02:50:49;;;;;;;;;47.00;40.25;;;;;;;;5012480;28;28602;-96
2023/07/02 02:53:14;;;;;;;;;35.50;29.75;;;;;;;;4996083;28;28548;-96
2023/07/02 02:55:40;;;;;;;;;34.25;30.75;;;;;;;;5013934;28;28587;-95
2023/07/02 02:58:05;;;;;;;;;29.33;25.00;;;;;;;;5014590;28;29543;-95
2023/07/02 03:00:30;;;;;;;;;35.00;32.50;;;;;;;;5013899;28;28589;-95
2023/07/02 03:02:56;;;;;;;;;45.25;39.00;;;;;;;;5015261;28;28545;-95
2023/07/02 03:05:22;;;;;;;;;40.50;36.25;;;;;;;;5013793;28;28761;-95
2023/07/02 03:07:47;;;;;;;;;42.25;39.00;;;;;;;;5013970;28;28663;-95
2023/07/02 03:10:13;;;;;;;;;35.00;31.75;;;;;;;;5013551;28;28491;-96
2023/07/02 03:12:38;;;;;;;;;45.67;37.00;;;;;;;;5016598;28;28403;-95
2023/07/02 03:15:03;;;;;;;;;34.00;32.25;;;;;;;;5018120;28;28640;-96
2023/07/02 03:17:29;;;;;;;;;34.00;34.00;;;;;;;;5018157;28;28468;-95
2023/07/02 03:19:54;;;;;;;;;38.25;34.00;;;;;;;;5016530;28;28610;-95
2023/07/02 03:22:19;;;;;;;;;35.33;32.33;;;;;;;;5000216;28;28411;-94
2023/07/02 03:24:44;;;;;;;;;58.25;47.00;;;;;;;;5017475;28;28273;-95
2023/07/02 03:27:10;;;;;;;;;55.50;40.75;;;;;;;;5017618;28;28679;-95
2023/07/02 03:29:35;;;;;;;;;53.25;42.00;;;;;;;;4999309;28;29265;-95
2023/07/02 03:32:01;;;;;;;;;36.50;35.50;;;;;;;;5015566;28;28609;-95
2023/07/02 03:34:26;;;;;;;;;39.25;35.00;;;;;;;;4999694;28;28496;-95
2023/07/02 03:36:51;;;;;;;;;35.50;34.25;;;;;;;;5017430;28;28237;-95
2023/07/02 03:39:17;;;;;;;;;33.75;32.50;;;;;;;;4998569;28;28511;-95
2023/07/02 03:41:42;;;;;;;;;43.00;38.50;;;;;;;;5017635;28;28548;-95
2023/07/02 03:44:07;;;;;;;;;33.00;32.25;;;;;;;;5016766;28;28495;-95
2023/07/02 03:46:33;;;;;;;;;40.25;36.25;;;;;;;;5017583;28;28598;-94
2023/07/02 03:48:58;;;;;;;;;35.33;28.00;;;;;;;;5014312;28;28462;-95
2023/07/02 03:51:23;;;;;;;;;34.67;30.67;;;;;;;;4999219;28;28609;-95
2023/07/02 03:53:48;;;;;;;;;34.00;32.25;;;;;;;;5017463;28;28426;-94
2023/07/02 03:56:14;;;;;;;;;42.33;38.00;;;;;;;;5015657;28;28599;-95
2023/07/02 03:58:40;;;;;;;;;32.00;28.33;;;;;;;;5017806;28;28681;-94
2023/07/02 04:01:05;;;;;;;;;42.67;34.33;;;;;;;;5018226;28;28462;-95
2023/07/02 04:03:30;;;;;;;;;36.00;34.00;;;;;;;;5017501;28;28609;-95
2023/07/02 04:05:55;;;;;;;;;32.67;30.00;;;;;;;;5016797;28;29598;-95
2023/07/02 04:08:21;;;;;;;;;34.33;30.67;;;;;;;;5016279;28;28490;-94
2023/07/02 04:10:47;;;;;;;;;35.33;32.67;;;;;;;;5016150;28;28351;-95
2023/07/02 04:13:12;;;;;;;;;29.00;27.00;;;;;;;;5017297;28;28502;-95
2023/07/02 04:15:37;;;;;;;;;30.33;27.00;;;;;;;;5016063;28;28703;-96
2023/07/02 04:18:02;;;;;;;;;29.67;28.00;;;;;;;;5016883;28;28497;-95
2023/07/02 04:20:28;;;;;;;;;32.67;29.00;;;;;;;;4998354;28;28425;-95
2023/07/02 04:22:53;;;;;;;;;35.33;33.67;;;;;;;;4999260;28;28548;-94
2023/07/02 04:25:19;;;;;;;;;31.67;26.67;;;;;;;;5014069;28;29261;-95
2023/07/02 04:27:44;;;;;;;;;29.00;28.67;;;;;;;;5016698;28;28308;-95
2023/07/02 04:30:11;;;;;;;;;33.33;30.33;;;;;;;;5023050;28;28522;-95
2023/07/02 04:32:36;;;;;;;;;36.00;33.25;;;;;;;;5012228;28;28459;-95
2023/07/02 04:35:02;;;;;;;;;50.50;41.50;;;;;;;;5016367;28;28528;-95
2023/07/02 04:37:30;;;;;;;;;58.25;40.75;;;;;;;;5013874;28;28336;-96
2023/07/02 04:39:55;;;;;;;;;46.25;40.00;;;;;;;;5011638;28;28484;-95
2023/07/02 04:42:20;;;;;;;;;27.00;27.00;;;;;;;;5013752;28;28427;-95
2023/07/02 04:44:45;;;;;;;;;34.67;28.67;;;;;;;;5016653;28;28590;-94
2023/07/02 04:47:11;;;;;;;;;29.00;26.67;;;;;;;;4998246;28;29521;-95
2023/07/02 04:49:36;;;;;;;;;36.67;33.67;;;;;;;;5015300;28;28589;-95
2023/07/02 04:52:02;;;;;;;;;78.75;57.50;;;;;;;;5016557;28;28333;-95
2023/07/02 04:54:27;;;;;;;;;70.25;56.00;;;;;;;;5015117;28;28419;-95
2023/07/02 04:56:52;;;;;;;;;50.00;40.00;;;;;;;;5017783;28;28501;-95
2023/07/02 04:59:21;;;;;;;;;50.50;40.00;;;;;;;;5015493;28;28302;-95
2023/07/02 05:01:47;;;;;;;;;39.25;36.75;;;;;;;;4998186;28;28476;-95
2023/07/02 05:04:12;;;;;;;;;44.00;40.00;;;;;;;;5014141;28;28671;-95
2023/07/02 05:06:37;;;;;;;;;41.25;38.00;;;;;;;;5014642;28;28642;-95
2023/07/02 05:09:02;;;;;;;;;48.25;42.25;;;;;;;;5015497;28;28416;-95
2023/07/02 05:11:28;;;;;;;;;66.75;55.00;;;;;;;;5013728;28;28665;-96
2023/07/02 05:13:53;;;;;;;;;56.75;46.25;;;;;;;;4997701;28;29655;-95
2023/07/02 05:16:21;;;;;;;;;39.50;35.75;;;;;;;;4998390;28;28662;-95
2023/07/02 05:18:46;;;;;;;;;27.00;26.00;;;;;;;;5014222;28;28544;-95
2023/07/02 05:21:11;;;;;;;;;29.00;27.33;;;;;;;;5015815;28;28446;-95
2023/07/02 05:23:37;;;;;;;;;27.67;27.33;;;;;;;;4997562;28;30568;-95
2023/07/02 05:26:02;;;;;;;;;30.33;26.67;;;;;;;;5013538;28;28526;-96
2023/07/02 05:28:27;;;;;;;;;33.25;29.25;;;;;;;;5014815;28;28492;-96
2023/07/02 05:30:53;;;;;;;;;26.00;24.67;;;;;;;;4996550;28;28277;-95
2023/07/02 05:33:22;;;;;;;;;26.33;25.00;;;;;;;;4996979;28;28399;-95
2023/07/02 05:35:47;;;;;;;;;23.67;21.67;;;;;;;;5013990;28;28725;-96
2023/07/02 05:38:12;;;;;;;;;31.67;26.00;;;;;;;;5014400;28;28631;-96
2023/07/02 05:40:38;;;;;;;;;28.67;26.67;;;;;;;;4996147;28;28441;-95
2023/07/02 05:43:03;;;;;;;;;29.00;29.00;;;;;;;;5015521;28;28373;-95
2023/07/02 05:45:28;;;;;;;;;26.67;25.33;;;;;;;;5011267;28;28518;-95
2023/07/02 05:47:54;;;;;;;;;26.00;24.67;;;;;;;;5015101;28;28474;-95
2023/07/02 05:50:19;;;;;;;;;26.00;22.33;;;;;;;;5014278;28;28466;-96
2023/07/02 05:52:44;;;;;;;;;29.00;25.33;;;;;;;;4997820;28;29664;-95
2023/07/02 05:55:10;;;;;;;;;28.00;27.00;;;;;;;;5020559;28;29625;-95
2023/07/02 05:57:36;;;;;;;;;31.75;30.25;;;;;;;;5017013;28;28418;-96
2023/07/02 06:00:01;;;;;;;;;30.00;29.00;;;;;;;;4997123;28;28547;-95
2023/07/02 06:02:26;;;;;;;;;30.67;29.00;;;;;;;;4997533;28;30629;-95
2023/07/02 06:04:51;;;;;;;;;46.50;41.75;;;;;;;;5014199;28;28644;-92
2023/07/02 06:07:17;;;;;;;;;32.25;31.25;;;;;;;;5016904;28;28340;-92
2023/07/02 06:09:42;;;;;;;;;34.75;31.50;;;;;;;;4999153;28;28737;-90
2023/07/02 06:12:07;;;;;;;;;32.67;31.00;;;;;;;;5015918;28;29264;-92
2023/07/02 06:14:32;;;;;;;;;33.33;31.33;;;;;;;;4998115;28;28555;-91
2023/07/02 06:16:59;;;;;;;;;26.67;25.67;;;;;;;;5019109;28;28264;-90
2023/07/02 06:19:24;;;;;;;;;36.00;34.50;;;;;;;;4997314;28;28580;-91
2023/07/02 06:21:49;;;;;;;;;43.00;35.50;;;;;;;;4993988;28;28402;-90
2023/07/02 06:24:17;;;;;;;;;45.25;38.75;;;;;;;;4996106;28;28373;-91
2023/07/02 06:26:42;;;;;;;;;49.50;39.75;;;;;;;;4994767;28;28346;-90
2023/07/02 06:29:07;;;;;;;;;55.25;44.75;;;;;;;;4992170;28;28240;-90
2023/07/02 06:31:32;;;;;;;;;57.00;46.50;;;;;;;;4992119;28;28541;-90
2023/07/02 06:33:58;;;;;;;;;53.75;45.00;;;;;;;;4986988;28;28809;-91
2023/07/02 06:36:23;;;;;;;;;54.50;44.75;;;;;;;;4994050;28;28413;-91
2023/07/02 06:38:48;;;;;;;;;60.75;47.50;;;;;;;;4994771;28;28587;-91
2023/07/02 06:41:14;;;;;;;;;64.25;49.00;;;;;;;;4992666;28;30974;-93
2023/07/02 06:43:41;;;;;;;;;68.25;52.50;;;;;;;;4993990;28;28962;-91
2023/07/02 06:46:06;;;;;;;;;64.25;48.00;;;;;;;;4996649;28;28505;-92
2023/07/02 06:48:32;;;;;;;;;66.50;53.25;;;;;;;;5000006;28;28532;-91
2023/07/02 06:50:57;;;;;;;;;63.00;50.25;;;;;;;;4995720;28;30877;-90
2023/07/02 06:53:23;;;;;;;;;46.25;39.25;;;;;;;;4997023;28;28403;-90
2023/07/02 06:55:48;;;;;;;;;57.75;44.75;;;;;;;;4998022;28;28300;-90
2023/07/02 06:58:13;;;;;;;;;53.25;44.25;;;;;;;;5006379;28;28342;-90
2023/07/02 07:00:38;;;;;;;;;36.50;34.50;;;;;;;;4994610;28;30948;-90
2023/07/02 07:03:04;;;;;;;;;31.75;26.25;;;;;;;;4994975;28;28220;-94
2023/07/02 07:05:30;;;;;;;;;36.33;29.67;;;;;;;;4996433;28;28608;-92
2023/07/02 07:07:55;;;;;;;;;23.33;22.00;;;;;;;;4999318;28;28655;-93
2023/07/02 07:10:21;;;;;;;;;25.67;24.67;;;;;;;;5000484;28;28310;-94
2023/07/02 07:12:46;;;;;;;;;43.25;36.00;;;;;;;;4987384;28;29727;-92
2023/07/02 07:15:11;;;;;;;;;28.33;25.67;;;;;;;;4994018;28;28222;-91
2023/07/02 07:17:36;;;;;;;;;30.33;26.67;;;;;;;;4995124;28;30444;-92
2023/07/02 07:20:04;;;;;;;;;18.00;18.00;;;;;;;;5003881;28;29084;-92
2023/07/02 07:22:30;;;;;;;;;22.33;20.33;;;;;;;;5009290;28;28328;-91
2023/07/02 07:24:55;;;;;;;;;21.00;21.00;;;;;;;;5018774;28;28437;-91
2023/07/02 07:27:20;;;;;;;;;23.00;22.33;;;;;;;;5001323;28;28476;-93
2023/07/02 07:29:45;;;;;;;;;28.00;21.67;;;;;;;;5018183;28;28582;-93
2023/07/02 07:32:10;;;;;;;;;24.00;21.00;;;;;;;;5006216;28;28499;-93
2023/07/02 07:34:36;;;;;;;;;19.00;18.67;;;;;;;;4997330;28;28411;-94
2023/07/02 07:37:01;;;;;;;;;24.00;21.33;;;;;;;;5001101;28;28330;-95
2023/07/02 07:39:26;;;;;;;;;18.33;18.33;;;;;;;;4999440;28;28638;-94
2023/07/02 07:41:51;;;;;;;;;22.67;18.67;;;;;;;;5018934;28;28495;-93
2023/07/02 07:44:17;;;;;;;;;15.00;14.00;;;;;;;;5018881;28;28418;-93
2023/07/02 07:46:42;;;;;;;;;18.00;18.00;;;;;;;;5023675;28;28485;-93
2023/07/02 07:49:07;;;;;;;;;12.67;12.67;;;;;;;;5015249;28;28480;-92
2023/07/02 07:51:32;;;;;;;;;17.33;17.33;;;;;;;;4999756;28;28512;-93
2023/07/02 07:53:58;;;;;;;;;14.00;13.33;;;;;;;;5000244;28;28641;-93
2023/07/02 07:56:23;;;;;;;;;18.33;17.67;;;;;;;;5017805;28;28459;-93
2023/07/02 07:58:48;;;;;;;;;30.67;30.67;;;;;;;;4998811;28;28592;-92
2023/07/02 08:01:13;;;;;;;;;26.00;25.67;;;;;;;;4998774;28;28442;-92
2023/07/02 08:03:39;;;;;;;;;20.00;19.00;;;;;;;;5000080;28;28308;-93
2023/07/02 08:06:04;;;;;;;;;21.00;19.00;;;;;;;;5013986;28;28462;-92
2023/07/02 08:08:29;;;;;;;;;20.00;19.67;;;;;;;;5013060;28;28477;-93
2023/07/02 08:10:54;;;;;;;;;23.33;22.67;;;;;;;;4995061;28;29100;-92
2023/07/02 08:13:20;;;;;;;;;30.00;29.33;;;;;;;;5015729;28;28244;-93
2023/07/02 08:15:45;;;;;;;;;25.33;24.00;;;;;;;;5000446;28;28316;-93
2023/07/02 08:18:11;;;;;;;;;28.00;27.00;;;;;;;;5018268;28;28447;-92
2023/07/02 08:20:37;;;;;;;;;24.00;24.00;;;;;;;;5028001;28;28347;-91
2023/07/02 08:23:02;;;;;;;;;25.33;22.33;;;;;;;;5015443;28;28285;-92
2023/07/02 08:25:27;;;;;;;;;23.33;22.00;;;;;;;;5015182;28;28514;-94
2023/07/02 08:27:52;;;;;;;;;18.33;17.67;;;;;;;;4997960;28;28949;-92
2023/07/02 08:30:18;;;;;;;;;17.00;17.00;;;;;;;;5017012;28;28488;-92
2023/07/02 08:32:43;;;;;;;;;18.33;16.00;;;;;;;;5005907;28;28670;-92
2023/07/02 08:35:08;;;;;;;;;16.67;15.33;;;;;;;;4998045;28;28759;-92
2023/07/02 08:37:33;;;;;;;;;15.00;14.33;;;;;;;;5015470;28;28853;-92
2023/07/02 08:39:59;;;;;;;;;17.00;17.00;;;;;;;;5010478;28;28486;-92
2023/07/02 08:42:24;;;;;;;;;18.00;16.00;;;;;;;;5014247;28;28558;-93
2023/07/02 08:44:53;;;;;;;;;16.00;14.33;;;;;;;;5015748;28;28647;-93
2023/07/02 08:47:18;;;;;;;;;10.33;10.33;;;;;;;;5018229;28;28707;-93
2023/07/02 08:49:44;;;;;;;;;17.33;13.00;;;;;;;;4998057;28;28567;-92
2023/07/02 08:52:09;;;;;;;;;13.33;13.33;;;;;;;;4998478;28;28444;-93
2023/07/02 08:54:34;;;;;;;;;12.00;10.00;;;;;;;;5015226;28;28490;-92
2023/07/02 08:57:04;;;;;;;;;11.33;11.33;;;;;;;;5021981;28;28288;-92
2023/07/02 08:59:29;;;;;;;;;11.67;11.67;;;;;;;;5018464;28;28524;-92
2023/07/02 09:01:55;;;;;;;;;14.33;14.33;;;;;;;;4995762;28;28467;-92
2023/07/02 09:04:23;;;;;;;;;12.67;12.00;;;;;;;;4996966;28;28610;-92
2023/07/02 09:06:49;;;;;;;;;12.67;11.67;;;;;;;;4998683;28;30201;-92
2023/07/02 09:09:15;;;;;;;;;12.33;11.33;;;;;;;;5013885;28;28498;-91
2023/07/02 09:11:48;;;;;;;;;10.33;10.33;;;;;;;;4997024;28;28577;-91
2023/07/02 09:14:25;;;;;;;;;11.33;11.00;;;;;;;;5016576;28;28473;-92
2023/07/02 09:17:00;;;;;;;;;9.00;9.00;;;;;;;;5000047;28;30239;-92
2023/07/02 09:19:25;;;;;;;;;10.67;10.67;;;;;;;;5001821;28;28364;-92
2023/07/02 09:21:51;;;;;;;;;13.67;13.67;;;;;;;;5014636;28;28937;-93
2023/07/02 09:24:20;;;;;;;;;15.00;15.00;;;;;;;;5017322;28;28251;-92
2023/07/02 09:26:49;;;;;;;;;14.33;12.33;;;;;;;;4999637;28;30546;-92
2023/07/02 09:29:28;;;;;;;;;10.67;10.67;;;;;;;;4998499;28;29394;-92
2023/07/02 09:31:54;;;;;;;;;14.67;13.67;;;;;;;;5010807;28;28514;-93
2023/07/02 09:34:19;;;;;;;;;10.67;10.67;;;;;;;;5010373;28;28433;-91
2023/07/02 09:36:44;;;;;;;;;13.33;13.33;;;;;;;;5011129;28;29381;-91
2023/07/02 09:39:13;;;;;;;;;9.33;9.33;;;;;;;;5014253;28;28478;-92
2023/07/02 09:41:40;;;;;;;;;14.33;14.33;;;;;;;;5015459;28;28707;-92
2023/07/02 09:44:07;;;;;;;;;9.67;9.67;;;;;;;;4999451;28;28311;-92
2023/07/02 09:46:33;;;;;;;;;8.00;8.00;;;;;;;;5017115;28;28333;-92
2023/07/02 09:48:59;;;;;;;;;10.00;10.00;;;;;;;;5015620;28;28472;-92
2023/07/02 09:51:25;;;;;;;;;9.67;9.00;;;;;;;;4998787;28;29869;-92
2023/07/02 09:53:51;;;;;;;;;8.00;8.00;;;;;;;;4999097;28;28440;-92
2023/07/02 09:56:18;;;;;;;;;11.00;9.00;;;;;;;;5016779;28;28439;-91
2023/07/02 09:58:46;;;;;;;;;5.67;5.67;;;;;;;;5013284;28;28660;-95
2023/07/02 10:01:11;;;;;;;;;9.00;8.00;;;;;;;;4998343;28;28424;-92
2023/07/02 10:03:36;;;;;;;;;11.00;8.00;;;;;;;;5003460;28;28297;-91
2023/07/02 10:06:02;;;;;;;;;12.00;10.33;;;;;;;;5006453;28;28689;-91
2023/07/02 10:08:30;;;;;;;;;9.67;9.67;;;;;;;;5015500;28;28256;-93
2023/07/02 10:11:06;;;;;;;;;10.00;10.00;;;;;;;;5016644;28;28492;-93
2023/07/02 10:13:31;;;;;;;;;7.33;7.33;;;;;;;;4997602;28;28526;-92
2023/07/02 10:16:06;;;;;;;;;10.33;10.33;;;;;;;;5016372;28;28517;-92
2023/07/02 10:18:31;;;;;;;;;9.00;9.00;;;;;;;;4988964;28;28729;-93
2023/07/02 10:20:56;;;;;;;;;9.33;9.33;;;;;;;;4989915;28;28496;-92
2023/07/02 10:23:32;;;;;;;;;9.67;9.67;;;;;;;;5020370;28;28538;-93
2023/07/02 10:25:57;;;;;;;;;8.00;8.00;;;;;;;;5019509;28;28434;-91
2023/07/02 10:28:26;;;;;;;;;8.67;8.67;;;;;;;;5009171;28;28506;-92
2023/07/02 10:30:55;;;;;;;;;7.67;7.00;;;;;;;;4997690;28;28539;-92
2023/07/02 10:33:20;;;;;;;;;8.00;8.00;;;;;;;;5002549;28;28496;-92
2023/07/02 10:35:49;;;;;;;;;10.00;10.00;;;;;;;;5005012;28;29073;-92
2023/07/02 10:38:22;;;;;;;;;9.00;9.00;;;;;;;;5001496;28;29743;-92
2023/07/02 10:40:54;;;;;;;;;11.67;8.00;;;;;;;;5014329;28;28541;-95
2023/07/02 10:43:29;;;;;;;;;8.00;8.00;;;;;;;;5002677;28;28441;-94
2023/07/02 10:45:54;;;;;;;;;9.00;9.00;;;;;;;;5000453;28;28568;-93
2023/07/02 10:48:20;;;;;;;;;8.00;8.00;;;;;;;;5020749;28;28526;-94
2023/07/02 10:50:50;;;;;;;;;11.67;11.67;;;;;;;;5021538;28;28537;-96
2023/07/02 10:53:16;;;;;;;;;8.00;8.00;;;;;;;;5000719;28;28319;-96
2023/07/02 10:55:55;;;;;;;;;9.67;9.67;;;;;;;;5011725;28;28361;-96
2023/07/02 10:58:30;;;;;;;;;;;;;;;;;;;;;
2023/07/02 11:00:56;;;;;;;;;7.33;7.33;;;;;;;;5185055;22;53564;-93
2023/07/02 11:03:23;;;;;;;;;9.33;9.33;;;;;;;;5029779;28;28458;-92
2023/07/02 11:05:57;;;;;;;;;9.33;7.67;;;;;;;;5038201;28;28641;-92
2023/07/02 11:08:24;;;;;;;;;12.00;12.00;;;;;;;;5018075;28;28764;-94
2023/07/02 11:10:49;;;;;;;;;6.67;5.33;;;;;;;;5020483;28;28533;-96
2023/07/02 11:13:19;;;;;;;;;8.33;8.00;;;;;;;;5039278;28;28860;-91
2023/07/02 11:15:47;;;;;;;;;15.00;14.67;;;;;;;;5039202;28;28371;-95
2023/07/02 11:18:13;;;;;;;;;13.00;12.67;;;;;;;;5022403;28;29900;-96
2023/07/02 11:20:39;;;;;;;;;9.33;8.33;;;;;;;;5036497;28;28450;-95
2023/07/02 11:23:05;;;;;;;;;10.00;10.00;;;;;;;;5038065;28;28505;-95
2023/07/02 11:25:30;;;;;;;;;7.33;7.33;;;;;;;;5021108;28;29709;-96
2023/07/02 11:28:03;;;;;;;;;9.67;9.67;;;;;;;;5020919;28;29495;-94
2023/07/02 11:30:28;;;;;;;;;6.67;6.67;;;;;;;;5037909;28;28722;-94
2023/07/02 11:32:54;;;;;;;;;6.00;6.00;;;;;;;;5018228;28;28403;-95
2023/07/02 11:35:20;;;;;;;;;8.00;8.00;;;;;;;;5020938;28;28571;-94
2023/07/02 11:37:46;;;;;;;;;7.33;7.33;;;;;;;;5023091;28;28677;-94
2023/07/02 11:40:11;;;;;;;;;6.33;5.00;;;;;;;;5016371;28;28420;-95
2023/07/02 11:42:37;;;;;;;;;6.00;6.00;;;;;;;;5013752;28;28369;-96
2023/07/02 11:47:38;;;;;;;;;6.00;6.00;;;;;;;;4910148;25;28495;-93
2023/07/02 11:50:03;;;;;;;;;9.33;8.67;;;;;;;;5066695;28;28616;-96
2023/07/02 11:52:29;;;;;;;;;6.00;6.00;;;;;;;;5058044;28;28409;-96
2023/07/02 11:54:54;;;;;;;;;6.67;6.67;;;;;;;;5056266;28;28484;-96
2023/07/02 11:57:21;;;;;;;;;9.00;8.00;;;;;;;;5058289;28;27863;-95
2023/07/02 11:59:46;;;;;;;;;8.00;8.00;;;;;;;;5061562;28;28594;-96
2023/07/02 12:02:12;;;;;;;;;8.67;7.67;;;;;;;;5058059;28;28691;-96
2023/07/02 12:04:38;;;;;;;;;10.33;9.00;;;;;;;;5057423;28;28309;-96
2023/07/02 12:07:06;;;;;;;;;8.00;8.00;;;;;;;;5058648;28;28309;-96
2023/07/02 12:09:31;;;;;;;;;8.67;8.00;;;;;;;;5055715;28;28349;-96
2023/07/02 12:11:57;;;;;;;;;6.00;6.00;;;;;;;;5058407;28;28415;-96
2023/07/02 12:14:25;;;;;;;;;7.67;7.67;;;;;;;;5051390;28;28677;-96
2023/07/02 12:16:52;;;;;;;;;4.67;4.67;;;;;;;;5056951;28;28594;-96
2023/07/02 12:19:18;;;;;;;;;5.33;5.33;;;;;;;;5047963;28;27886;-96
2023/07/02 12:21:43;;;;;;;;;8.00;8.00;;;;;;;;5058348;28;28363;-94
2023/07/02 12:24:09;;;;;;;;;6.00;6.00;;;;;;;;5054661;28;29576;-94
2023/07/02 12:26:35;;;;;;;;;6.67;6.67;;;;;;;;5058181;28;28510;-94
2023/07/02 12:29:00;;;;;;;;;5.33;5.33;;;;;;;;5066260;28;28634;-95
2023/07/02 12:31:26;;;;;;;;;7.00;7.00;;;;;;;;5052873;28;28582;-96
2023/07/02 12:33:51;;;;;;;;;6.33;6.33;;;;;;;;5049992;28;28553;-95
2023/07/02 12:36:16;;;;;;;;;7.67;7.67;;;;;;;;5058279;28;28421;-96
2023/07/02 12:38:41;;;;;;;;;8.00;8.00;;;;;;;;5065202;28;28302;-94
2023/07/02 12:41:07;;;;;;;;;8.33;8.33;;;;;;;;5055963;28;28420;-95
2023/07/02 12:43:32;;;;;;;;;7.33;7.33;;;;;;;;5055399;28;28488;-95
2023/07/02 12:45:57;;;;;;;;;7.00;7.00;;;;;;;;5057464;28;28410;-95
2023/07/02 12:48:26;;;;;;;;;13.67;11.67;;;;;;;;5066227;28;28434;-96
2023/07/02 12:50:55;;;;;;;;;9.00;9.00;;;;;;;;5061840;28;28487;-94
2023/07/02 12:53:21;;;;;;;;;17.00;15.67;;;;;;;;5055011;28;28501;-94
2023/07/02 12:55:46;;;;;;;;;10.67;10.67;;;;;;;;5056199;28;29372;-95
2023/07/02 12:58:11;;;;;;;;;9.67;8.33;;;;;;;;5061063;28;28582;-96
2023/07/02 13:00:37;;;;;;;;;11.67;10.67;;;;;;;;5065329;28;28676;-96
2023/07/02 13:03:02;;;;;;;;;10.33;10.00;;;;;;;;5059914;28;28378;-96
2023/07/02 13:05:27;;;;;;;;;13.33;13.33;;;;;;;;5056607;28;28440;-95
2023/07/02 13:07:53;;;;;;;;;10.67;7.33;;;;;;;;5054561;28;28568;-96
2023/07/02 13:10:18;;;;;;;;;7.00;7.00;;;;;;;;5056572;28;28439;-96
2023/07/02 13:12:43;;;;;;;;;6.67;6.67;;;;;;;;5056256;28;28988;-96
2023/07/02 13:15:39;;;;;;;;;;;;;;;;;;;;;
2023/07/02 13:18:04;;;;;;;;;9.33;7.33;;;;;;;;5044067;28;52832;-96
2023/07/02 13:21:01;;;;;;;;;11.00;9.00;;;;;;;;5221606;22;29277;-96
2023/07/02 13:23:32;;;;;;;;;5.67;5.67;;;;;;;;5055249;28;29821;-96
2023/07/02 13:26:07;;;;;;;;;6.67;6.67;;;;;;;;5068246;28;29394;-95
2023/07/02 13:28:33;;;;;;;;;11.33;11.00;;;;;;;;5051858;28;28517;-94
2023/07/02 13:30:58;;;;;;;;;17.33;16.00;;;;;;;;5034468;28;28477;-94
2023/07/02 13:33:23;;;;;;;;;12.67;11.67;;;;;;;;5030640;28;28549;-96
2023/07/02 13:35:49;;;;;;;;;7.00;7.00;;;;;;;;5035980;28;28633;-95
2023/07/02 13:38:14;;;;;;;;;6.67;6.67;;;;;;;;5032648;28;28397;-95
2023/07/02 13:40:39;;;;;;;;;7.67;7.67;;;;;;;;5037244;28;28527;-94
2023/07/02 13:43:05;;;;;;;;;11.33;10.33;;;;;;;;5028192;28;30956;-95
2023/07/02 13:45:30;;;;;;;;;7.00;7.00;;;;;;;;5036972;28;28428;-96
2023/07/02 13:47:55;;;;;;;;;15.00;15.00;;;;;;;;5032731;28;28426;-95
2023/07/02 13:50:21;;;;;;;;;14.33;9.33;;;;;;;;5033503;28;28549;-94
2023/07/02 13:52:46;;;;;;;;;5.67;5.67;;;;;;;;5034595;28;29872;-95
2023/07/02 13:55:11;;;;;;;;;7.00;7.00;;;;;;;;5036519;28;28272;-95
2023/07/02 13:57:37;;;;;;;;;5.33;5.33;;;;;;;;5035148;28;28315;-93
2023/07/02 14:00:04;;;;;;;;;7.33;7.33;;;;;;;;5036848;28;29472;-94
2023/07/02 14:02:31;;;;;;;;;4.00;4.00;;;;;;;;5037514;28;29729;-94
2023/07/02 14:04:59;;;;;;;;;5.67;4.67;;;;;;;;5035365;28;28594;-93
2023/07/02 14:07:24;;;;;;;;;5.33;4.67;;;;;;;;5035147;28;28576;-94
2023/07/02 14:09:50;;;;;;;;;4.33;4.33;;;;;;;;5036610;28;28469;-94
2023/07/02 14:12:17;;;;;;;;;7.00;6.00;;;;;;;;5036543;28;28319;-95
2023/07/02 14:14:43;;;;;;;;;5.67;5.67;;;;;;;;5035532;28;29515;-95
2023/07/02 14:17:11;;;;;;;;;4.33;4.33;;;;;;;;5035211;28;28311;-94
2023/07/02 14:19:36;;;;;;;;;6.33;5.00;;;;;;;;5036639;28;28375;-94
2023/07/02 14:22:01;;;;;;;;;5.00;4.00;;;;;;;;5018568;28;29676;-93